createdAt,value
2018-04-10T00:01:27.203Z,12.70
2018-04-10T00:03:55.252Z,12.60
2018-04-10T00:06:23.314Z,12.70
2018-04-10T00:08:51.374Z,12.60
2018-04-10T00:11:19.420Z,12.60
2018-04-10T00:13:47.505Z,12.50
2018-04-10T00:16:15.573Z,12.70
2018-04-10T00:18:43.639Z,12.80
2018-04-10T00:21:11.685Z,12.80
2018-04-10T00:23:40.507Z,12.80
2018-04-10T00:26:08.548Z,12.80
2018-04-10T00:28:36.614Z,12.70
2018-04-10T00:31:05.446Z,12.50
2018-04-10T00:33:33.494Z,12.50
2018-04-10T00:36:01.560Z,12.50
2018-04-10T00:38:29.608Z,12.40
2018-04-10T00:40:58.435Z,12.30
2018-04-10T00:43:26.472Z,12.30
2018-04-10T00:45:55.322Z,12.40
2018-04-10T00:48:23.369Z,12.30
2018-04-10T00:50:51.435Z,12.40
2018-04-10T00:53:31.259Z,12.40
2018-04-10T00:56:00.228Z,12.30
2018-04-10T00:58:28.290Z,12.30
2018-04-10T01:00:56.350Z,12.40
2018-04-10T01:03:24.412Z,12.30
2018-04-10T01:05:52.472Z,12.30
2018-04-10T01:08:20.524Z,12.20
2018-04-10T01:10:48.593Z,12.20
2018-04-10T01:13:16.641Z,12.30
2018-04-10T01:15:44.702Z,12.20
2018-04-10T01:18:12.744Z,12.20
2018-04-10T01:20:40.822Z,12.10
2018-04-10T01:23:08.878Z,12.20
2018-04-10T01:25:36.929Z,12.20
2018-04-10T01:28:05.213Z,12.30
2018-04-10T01:30:33.278Z,12.30
2018-04-10T01:33:01.337Z,12.30
2018-04-10T01:35:29.396Z,12.30
2018-04-10T01:37:57.446Z,12.40
2018-04-10T01:40:26.276Z,12.30
2018-04-10T01:42:54.321Z,12.30
2018-04-10T01:45:22.398Z,12.30
2018-04-10T01:47:50.453Z,12.30
2018-04-10T01:50:19.278Z,12.30
2018-04-10T01:52:47.328Z,12.30
2018-04-10T01:55:15.600Z,12.30
2018-04-10T01:57:43.666Z,12.30
2018-04-10T02:00:11.725Z,12.30
2018-04-10T02:02:40.558Z,12.20
2018-04-10T02:05:08.601Z,12.10
2018-04-10T02:07:36.662Z,12.20
2018-04-10T02:10:05.489Z,12.30
2018-04-10T02:12:33.619Z,12.30
2018-04-10T02:15:02.473Z,12.30
2018-04-10T02:17:30.533Z,12.30
2018-04-10T02:19:58.718Z,12.50
2018-04-10T02:22:26.771Z,12.50
2018-04-10T02:24:54.861Z,12.40
2018-04-10T02:27:22.907Z,12.50
2018-04-10T02:29:50.965Z,12.50
2018-04-10T02:32:19.036Z,12.50
2018-04-10T02:34:50.078Z,12.50
2018-04-10T02:37:18.147Z,12.40
2018-04-10T02:39:46.214Z,12.40
2018-04-10T02:42:14.267Z,12.30
2018-04-10T02:44:43.554Z,12.20
2018-04-10T02:47:12.377Z,12.20
2018-04-10T02:49:40.431Z,12.20
2018-04-10T02:52:09.246Z,12.40
2018-04-10T02:54:37.324Z,12.40
2018-04-10T02:57:05.364Z,12.50
2018-04-10T02:59:33.429Z,12.50
2018-04-10T03:02:02.250Z,12.40
2018-04-10T03:04:30.305Z,12.40
2018-04-10T03:06:58.585Z,12.30
2018-04-10T03:09:26.631Z,12.30
2018-04-10T03:11:55.445Z,12.20
2018-04-10T03:14:23.526Z,12.20
2018-04-10T03:16:51.607Z,12.20
2018-04-10T03:19:20.647Z,12.40
2018-04-10T03:21:49.475Z,12.60
2018-04-10T03:24:18.850Z,12.50
2018-04-10T03:26:47.669Z,12.40
2018-04-10T03:29:15.739Z,12.40
2018-04-10T03:31:43.803Z,12.30
2018-04-10T03:34:11.851Z,12.20
2018-04-10T03:36:40.688Z,12.20
2018-04-10T03:39:08.734Z,12.10
2018-04-10T03:41:36.929Z,12.10
2018-04-10T03:44:04.960Z,12.10
2018-04-10T03:46:33.029Z,12.10
2018-04-10T03:49:01.863Z,12.00
2018-04-10T03:51:29.914Z,12.00
2018-04-10T03:53:57.967Z,12.00
2018-04-10T03:56:26.109Z,12.10
2018-04-10T03:58:54.348Z,12.10
2018-04-10T04:01:22.414Z,12.20
2018-04-10T04:03:50.925Z,12.30
2018-04-10T04:06:19.012Z,12.30
2018-04-10T04:08:51.066Z,12.20
2018-04-10T04:11:19.124Z,12.20
2018-04-10T04:13:47.178Z,12.20
2018-04-10T04:16:27.054Z,12.20
2018-04-10T04:19:19.873Z,12.20
2018-04-10T04:21:59.683Z,12.20
2018-04-10T04:24:27.734Z,12.20
2018-04-10T04:26:56.555Z,12.20
2018-04-10T04:29:24.585Z,12.10
2018-04-10T04:31:52.638Z,12.10
2018-04-10T04:34:20.677Z,12.10
2018-04-10T04:36:48.735Z,12.10
2018-04-10T04:39:16.781Z,12.00
2018-04-10T04:41:45.610Z,12.00
2018-04-10T04:44:13.656Z,12.00
2018-04-10T04:46:41.720Z,12.20
2018-04-10T04:49:10.542Z,12.10
2018-04-10T04:51:38.611Z,12.00
2018-04-10T04:54:06.674Z,12.00
2018-04-10T04:56:34.791Z,11.90
2018-04-10T04:59:03.131Z,11.90
2018-04-10T05:01:32.935Z,12.00
2018-04-10T05:04:01.003Z,11.90
2018-04-10T05:06:29.064Z,11.90
2018-04-10T05:08:58.914Z,11.90
2018-04-10T05:11:26.976Z,12.00
2018-04-10T05:13:56.458Z,12.00
2018-04-10T05:16:24.538Z,12.00
2018-04-10T05:18:52.625Z,12.10
2018-04-10T05:21:20.702Z,12.00
2018-04-10T05:23:48.774Z,12.00
2018-04-10T05:26:16.833Z,12.00
2018-04-10T05:28:44.918Z,11.90
2018-04-10T05:31:13.058Z,11.80
2018-04-10T05:36:36.984Z,11.70
2018-04-10T05:39:05.995Z,11.70
2018-04-10T05:41:34.064Z,11.80
2018-04-10T05:44:02.143Z,11.80
2018-04-10T05:46:30.223Z,11.90
2018-04-10T05:48:58.288Z,11.90
2018-04-10T05:51:26.352Z,11.90
2018-04-10T05:53:54.546Z,11.90
2018-04-10T05:56:22.601Z,11.90
2018-04-10T05:58:50.669Z,11.90
2018-04-10T06:01:18.836Z,12.10
2018-04-10T06:03:46.910Z,12.30
2018-04-10T06:06:14.977Z,12.30
2018-04-10T06:08:43.056Z,12.40
2018-04-10T06:11:11.120Z,12.40
2018-04-10T06:13:39.193Z,12.40
2018-04-10T06:16:07.263Z,12.40
2018-04-10T06:18:35.339Z,12.40
2018-04-10T06:21:03.429Z,12.40
2018-04-10T06:23:31.487Z,12.50
2018-04-10T06:25:59.537Z,12.60
2018-04-10T06:28:27.619Z,12.60
2018-04-10T06:30:55.686Z,12.80
2018-04-10T06:33:23.745Z,12.70
2018-04-10T06:35:51.799Z,12.80
2018-04-10T06:38:19.852Z,12.90
2018-04-10T06:40:47.905Z,12.90
2018-04-10T06:43:16.730Z,12.90
2018-04-10T06:45:44.793Z,12.90
2018-04-10T06:48:12.995Z,13.00
2018-04-10T06:50:41.030Z,13.10
2018-04-10T06:53:09.106Z,13.10
2018-04-10T06:55:37.198Z,13.20
2018-04-10T06:58:05.243Z,13.30
2018-04-10T07:00:33.316Z,13.30
2018-04-10T07:03:01.372Z,13.40
2018-04-10T07:05:29.412Z,13.60
2018-04-10T07:07:57.527Z,13.60
2018-04-10T07:10:25.538Z,13.60
2018-04-10T07:12:53.988Z,13.70
2018-04-10T07:15:22.026Z,13.70
2018-04-10T07:17:50.836Z,13.70
2018-04-10T07:20:18.908Z,13.70
2018-04-10T07:22:46.948Z,13.80
2018-04-10T07:25:15.774Z,13.90
2018-04-10T07:27:43.869Z,13.90
2018-04-10T07:30:11.909Z,14.00
2018-04-10T07:32:39.978Z,14.00
2018-04-10T07:35:08.022Z,14.10
2018-04-10T07:37:36.843Z,14.10
2018-04-10T07:40:04.939Z,14.10
2018-04-10T07:42:32.988Z,14.20
2018-04-10T07:45:01.052Z,14.30
2018-04-10T07:47:29.092Z,14.40
2018-04-10T07:49:57.921Z,14.40
2018-04-10T07:52:25.964Z,14.40
2018-04-10T07:54:54.018Z,14.50
2018-04-10T07:57:22.117Z,14.60
2018-04-10T07:59:50.178Z,14.80
2018-04-10T08:02:19.192Z,14.90
2018-04-10T08:04:48.113Z,15.00
2018-04-10T08:07:16.105Z,15.00
2018-04-10T08:09:44.163Z,15.20
2018-04-10T08:12:12.218Z,15.30
2018-04-10T08:14:40.307Z,15.50
2018-04-10T08:17:08.371Z,15.60
2018-04-10T08:19:36.445Z,15.80
2018-04-10T08:22:04.479Z,16.00
2018-04-10T08:24:32.529Z,16.10
2018-04-10T08:27:00.614Z,16.10
2018-04-10T08:29:28.681Z,16.20
2018-04-10T08:31:56.746Z,16.30
2018-04-10T08:34:24.822Z,16.40
2018-04-10T08:36:52.893Z,16.60
2018-04-10T08:39:20.969Z,16.70
2018-04-10T08:41:49.034Z,16.60
2018-04-10T08:44:17.106Z,16.70
2018-04-10T08:46:45.186Z,16.80
2018-04-10T08:49:13.243Z,16.90
2018-04-10T08:51:41.323Z,16.90
2018-04-10T08:54:12.158Z,16.90
2018-04-10T08:56:40.220Z,16.80
2018-04-10T08:59:08.279Z,16.90
2018-04-10T09:01:36.350Z,17.00
2018-04-10T09:04:04.429Z,17.10
2018-04-10T09:06:32.472Z,17.10
2018-04-10T09:09:06.531Z,17.20
2018-04-10T09:11:34.594Z,17.30
2018-04-10T09:14:02.645Z,17.40
2018-04-10T09:16:31.467Z,17.60
2018-04-10T09:18:59.523Z,17.60
2018-04-10T09:21:27.626Z,17.80
2018-04-10T09:23:55.702Z,17.90
2018-04-10T09:26:27.946Z,18.00
2018-04-10T09:28:56.009Z,18.10
2018-04-10T09:31:24.078Z,18.80
2018-04-10T09:33:52.146Z,20.70
2018-04-10T09:36:20.211Z,23.20
2018-04-10T09:38:50.637Z,25.30
2018-04-10T09:41:18.695Z,27.30
2018-04-10T09:43:47.522Z,29.80
2018-04-10T09:46:15.574Z,29.60
2018-04-10T09:48:43.634Z,30.00
2018-04-10T09:51:12.475Z,33.10
2018-04-10T09:53:40.546Z,33.00
2018-04-10T09:56:08.629Z,33.80
2018-04-10T09:58:36.675Z,34.20
2018-04-10T10:01:04.733Z,34.60
2018-04-10T10:03:33.608Z,34.80
2018-04-10T10:06:01.893Z,33.70
2018-04-10T10:08:29.958Z,34.50
2018-04-10T10:10:58.030Z,33.70
2018-04-10T10:13:26.096Z,33.70
2018-04-10T10:15:54.159Z,32.70
2018-04-10T10:18:22.220Z,31.70
2018-04-10T10:20:52.271Z,31.00
2018-04-10T10:23:20.456Z,30.30
2018-04-10T10:25:48.625Z,29.30
2018-04-10T10:28:16.681Z,27.40
2018-04-10T10:30:44.746Z,26.60
2018-04-10T10:33:12.810Z,26.30
2018-04-10T10:35:40.878Z,25.70
2018-04-10T10:38:08.924Z,26.00
2018-04-10T10:40:37.935Z,24.20
2018-04-10T10:43:05.945Z,24.10
2018-04-10T10:45:34.005Z,23.80
2018-04-10T10:48:02.072Z,23.80
2018-04-10T10:50:30.121Z,23.10
2018-04-10T10:52:59.123Z,23.00
2018-04-10T10:55:27.191Z,23.30
2018-04-10T10:57:55.262Z,22.90
2018-04-10T11:00:23.354Z,22.00
2018-04-10T11:02:51.614Z,22.00
2018-04-10T11:05:19.660Z,22.30
2018-04-10T11:07:48.498Z,22.50
2018-04-10T11:10:16.541Z,22.50
2018-04-10T11:12:44.587Z,22.70
2018-04-10T11:15:12.644Z,22.80
2018-04-10T11:17:40.707Z,23.00
2018-04-10T11:20:08.804Z,22.80
2018-04-10T11:22:36.818Z,23.10
2018-04-10T11:25:04.856Z,23.00
2018-04-10T11:33:53.279Z,22.50
2018-04-10T11:36:22.112Z,22.90
2018-04-10T11:38:50.196Z,22.90
2018-04-10T11:41:18.238Z,22.90
2018-04-10T11:43:47.063Z,22.80
2018-04-10T11:46:15.132Z,22.70
2018-04-10T11:48:43.444Z,23.10
2018-04-10T11:51:13.301Z,23.30
2018-04-10T11:53:41.350Z,23.30
2018-04-10T11:56:09.425Z,23.30
2018-04-10T11:58:37.496Z,23.40
2018-04-10T12:01:07.503Z,23.40
2018-04-10T12:03:35.554Z,23.40
2018-04-10T12:06:04.383Z,22.80
2018-04-10T12:08:32.448Z,22.80
2018-04-10T12:11:00.517Z,22.50
2018-04-10T12:13:28.588Z,22.60
2018-04-10T12:15:57.419Z,23.00
2018-04-10T12:18:25.480Z,23.00
2018-04-10T12:20:53.557Z,22.90
2018-04-10T12:23:21.619Z,23.20
2018-04-10T12:25:49.728Z,23.20
2018-04-10T12:28:18.560Z,23.60
2018-04-10T12:30:46.629Z,23.50
2018-04-10T12:33:14.709Z,23.60
2018-04-10T12:35:42.772Z,23.70
2018-04-10T12:38:10.848Z,23.80
2018-04-10T12:40:38.919Z,23.50
2018-04-10T12:43:07.235Z,23.70
2018-04-10T12:45:35.252Z,24.00
2018-04-10T12:48:03.322Z,23.90
2018-04-10T12:50:31.378Z,24.30
2018-04-10T12:52:59.451Z,24.40
2018-04-10T12:55:27.520Z,24.50
2018-04-10T12:57:55.591Z,24.70
2018-04-10T13:00:23.644Z,24.60
2018-04-10T13:02:51.878Z,23.70
2018-04-10T13:05:19.934Z,22.90
2018-04-10T13:07:48.005Z,22.80
2018-04-10T13:10:16.071Z,22.90
2018-04-10T13:12:44.156Z,22.50
2018-04-10T13:15:12.202Z,22.60
2018-04-10T13:17:44.815Z,22.70
2018-04-10T13:20:12.887Z,22.60
2018-04-10T13:22:40.967Z,22.30
2018-04-10T13:25:09.035Z,22.20
2018-04-10T13:27:37.102Z,22.10
2018-04-10T13:30:05.183Z,22.00
2018-04-10T13:32:35.234Z,22.10
2018-04-10T13:35:04.103Z,21.90
2018-04-10T13:37:35.035Z,21.90
2018-04-10T13:40:03.900Z,22.50
2018-04-10T13:42:31.971Z,22.50
2018-04-10T13:45:00.778Z,22.90
2018-04-10T13:47:28.839Z,23.30
2018-04-10T13:49:56.901Z,23.40
2018-04-10T13:52:25.019Z,22.80
2018-04-10T13:54:53.087Z,22.60
2018-04-10T13:57:21.164Z,22.80
2018-04-10T13:59:49.323Z,23.00
2018-04-10T14:02:18.160Z,23.10
2018-04-10T14:04:46.229Z,23.10
2018-04-10T14:07:14.305Z,23.50
2018-04-10T14:09:42.476Z,23.60
2018-04-10T14:12:10.610Z,23.60
2018-04-10T14:14:39.698Z,24.10
2018-04-10T14:17:08.571Z,24.00
2018-04-10T14:19:36.637Z,24.00
2018-04-10T14:22:04.976Z,24.10
2018-04-10T14:24:33.028Z,23.80
2018-04-10T14:27:01.103Z,23.40
2018-04-10T14:29:29.179Z,23.30
2018-04-10T14:31:58.115Z,22.80
2018-04-10T14:34:26.191Z,22.80
2018-04-10T14:36:54.265Z,22.90
2018-04-10T14:39:22.338Z,22.20
2018-04-10T14:41:50.412Z,22.00
2018-04-10T14:44:19.247Z,21.40
2018-04-10T14:46:47.306Z,21.40
2018-04-10T14:49:15.384Z,21.30
2018-04-10T14:51:43.565Z,21.20
2018-04-10T14:54:12.444Z,21.00
2018-04-10T14:56:43.644Z,20.90
2018-04-10T14:59:11.720Z,20.70
2018-04-10T15:01:41.075Z,20.70
2018-04-10T15:04:09.915Z,20.50
2018-04-10T15:06:40.402Z,20.50
2018-04-10T15:09:08.469Z,20.50
2018-04-10T15:11:36.630Z,20.40
2018-04-10T15:14:04.699Z,19.90
2018-04-10T15:16:32.768Z,18.60
2018-04-10T15:19:00.839Z,17.70
2018-04-10T15:21:28.919Z,17.00
2018-04-10T15:23:56.987Z,16.10
2018-04-10T15:26:25.042Z,15.50
2018-04-10T15:28:53.162Z,15.00
2018-04-10T15:31:21.202Z,14.80
2018-04-10T15:33:49.258Z,14.10
2018-04-10T15:36:17.330Z,14.10
2018-04-10T15:38:45.778Z,13.90
2018-04-10T15:41:13.835Z,13.60
2018-04-10T15:43:43.746Z,13.30
2018-04-10T15:46:11.817Z,13.30
2018-04-10T15:48:39.884Z,13.10
2018-04-10T15:51:07.959Z,12.90
2018-04-10T15:53:36.027Z,12.60
2018-04-10T15:56:04.113Z,12.70
2018-04-10T15:58:32.278Z,12.50
2018-04-10T16:01:00.345Z,12.30
2018-04-10T16:03:28.424Z,12.00
2018-04-10T16:05:56.564Z,11.40
2018-04-10T16:08:24.626Z,11.10
2018-04-10T16:10:52.823Z,11.00
2018-04-10T16:13:20.883Z,10.90
2018-04-10T16:15:48.934Z,10.90
2018-04-10T16:18:16.999Z,10.90
2018-04-10T16:20:45.795Z,11.00
2018-04-10T16:23:13.861Z,11.00
2018-04-10T16:25:41.931Z,11.20
2018-04-10T16:28:09.991Z,11.30
2018-04-10T16:30:38.063Z,11.50
2018-04-10T16:33:06.151Z,11.60
2018-04-10T16:35:34.215Z,11.60
2018-04-10T16:38:02.280Z,11.50
2018-04-10T16:40:30.354Z,11.40
2018-04-10T16:42:58.416Z,11.30
2018-04-10T16:45:26.500Z,11.30
2018-04-10T16:47:54.547Z,11.30
2018-04-10T16:50:23.372Z,11.50
2018-04-10T16:52:51.435Z,11.40
2018-04-10T16:55:19.506Z,11.40
2018-04-10T16:57:47.611Z,11.30
2018-04-10T17:00:15.682Z,11.20
2018-04-10T17:02:43.736Z,11.30
2018-04-10T17:05:11.809Z,11.30
2018-04-10T17:07:39.880Z,11.40
2018-04-10T17:10:07.943Z,11.40
2018-04-10T17:12:36.006Z,11.40
2018-04-10T17:15:04.077Z,11.30
2018-04-10T17:17:32.135Z,11.40
2018-04-10T17:20:00.214Z,11.50
2018-04-10T17:22:28.278Z,11.50
2018-04-10T17:24:56.332Z,11.30
2018-04-10T17:27:24.402Z,11.10
2018-04-10T17:29:53.231Z,11.10
2018-04-10T17:32:21.655Z,11.10
2018-04-10T17:34:50.483Z,11.20
2018-04-10T17:37:18.552Z,11.20
2018-04-10T17:39:46.641Z,11.00
2018-04-10T17:42:14.662Z,11.00
2018-04-10T17:44:42.714Z,11.00
2018-04-10T17:47:10.770Z,10.90
2018-04-10T17:49:39.294Z,10.80
2018-04-10T17:52:07.424Z,11.00
2018-04-10T17:54:35.524Z,11.10
2018-04-10T17:57:03.538Z,10.80
2018-04-10T17:59:32.391Z,10.60
2018-04-10T18:02:00.446Z,10.60
2018-04-10T18:04:28.513Z,10.40
2018-04-10T18:06:56.557Z,10.50
2018-04-10T18:09:24.639Z,10.60
2018-04-10T18:11:52.712Z,10.70
2018-04-10T18:14:20.752Z,10.70
2018-04-10T18:16:55.822Z,10.80
2018-04-10T18:19:23.950Z,10.90
2018-04-10T18:21:52.088Z,10.90
2018-04-10T18:24:20.192Z,10.80
2018-04-10T18:26:48.619Z,10.80
2018-04-10T18:29:16.688Z,10.70
2018-04-10T18:31:44.838Z,10.50
2018-04-10T18:34:13.680Z,10.50
2018-04-10T18:36:42.520Z,10.50
2018-04-10T18:39:10.824Z,10.50
2018-04-10T18:41:38.933Z,10.50
2018-04-10T18:44:07.745Z,10.30
2018-04-10T18:46:36.850Z,10.30
2018-04-10T18:49:04.912Z,10.20
2018-04-10T18:51:32.992Z,10.10
2018-04-10T18:54:01.269Z,10.20
2018-04-10T18:56:32.375Z,10.10
2018-04-10T18:59:00.508Z,10.20
2018-04-10T19:01:31.447Z,10.00
2018-04-10T19:03:59.513Z,10.10
2018-04-10T19:06:27.778Z,10.20
2018-04-10T19:08:55.831Z,10.30
2018-04-10T19:11:23.899Z,10.30
2018-04-10T19:13:51.950Z,10.30
2018-04-10T19:16:20.016Z,10.30
2018-04-10T19:18:48.067Z,10.30
2018-04-10T19:21:17.754Z,10.10
2018-04-10T19:23:45.835Z,10.10
2018-04-10T19:26:14.092Z,10.00
2018-04-10T19:28:42.304Z,10.00
2018-04-10T19:31:11.149Z,10.20
2018-04-10T19:33:39.201Z,10.20
2018-04-10T19:36:07.276Z,10.20
2018-04-10T19:38:35.327Z,10.30
2018-04-10T19:41:04.349Z,10.40
2018-04-10T19:43:32.492Z,10.30
2018-04-10T19:46:00.570Z,10.40
2018-04-10T19:48:28.620Z,10.40
2018-04-10T19:50:57.487Z,10.50
2018-04-10T19:53:25.542Z,10.50
2018-04-10T19:55:53.612Z,10.60
2018-04-10T19:58:21.679Z,10.50
2018-04-10T20:00:49.754Z,10.60
2018-04-10T20:03:17.815Z,10.70
2018-04-10T20:05:46.158Z,10.60
2018-04-10T20:08:14.259Z,10.70
2018-04-10T20:10:42.355Z,10.80
2018-04-10T20:13:10.404Z,10.70
2018-04-10T20:15:38.554Z,10.70
2018-04-10T20:18:07.355Z,11.00
2018-04-10T20:20:35.403Z,11.00
2018-04-10T20:23:03.474Z,11.10
2018-04-10T20:25:33.540Z,10.90
2018-04-10T20:28:01.608Z,10.90
2018-04-10T20:30:29.684Z,10.80
2018-04-10T20:32:57.861Z,10.70
2018-04-10T20:35:26.000Z,10.80
2018-04-10T20:37:54.068Z,10.90
2018-04-10T20:40:22.125Z,11.00
2018-04-10T20:42:50.194Z,11.00
2018-04-10T20:45:18.311Z,11.00
2018-04-10T20:47:46.383Z,11.00
2018-04-10T20:50:14.455Z,11.10
2018-04-10T20:52:42.536Z,11.00
2018-04-10T20:55:10.604Z,11.00
2018-04-10T20:57:38.683Z,11.00
2018-04-10T21:00:06.757Z,10.90
2018-04-10T21:02:34.835Z,10.80
2018-04-10T21:05:05.585Z,10.70
2018-04-10T21:07:34.439Z,10.70
2018-04-10T21:10:02.563Z,10.70
2018-04-10T21:12:30.683Z,10.80
2018-04-10T21:14:58.735Z,10.80
2018-04-10T21:17:26.874Z,10.70
2018-04-10T21:19:55.083Z,10.60
2018-04-10T21:22:23.120Z,10.50
2018-04-10T21:24:51.174Z,10.60
2018-04-10T21:27:20.012Z,10.50
2018-04-10T21:29:48.119Z,10.50
2018-04-10T21:32:18.603Z,10.60
2018-04-10T21:34:47.205Z,10.40
2018-04-10T21:37:15.280Z,10.40
2018-04-10T21:39:43.342Z,10.40
2018-04-10T21:42:11.418Z,10.30
2018-04-10T21:44:39.524Z,10.20
2018-04-10T21:47:07.608Z,10.30
2018-04-10T21:49:35.743Z,10.40
2018-04-10T21:52:03.830Z,10.50
2018-04-10T21:54:31.894Z,10.40
2018-04-10T21:56:59.975Z,10.20
2018-04-10T21:59:28.035Z,10.10
2018-04-10T22:01:56.131Z,10.00
2018-04-10T22:04:25.024Z,10.20
2018-04-10T22:06:53.157Z,10.10
2018-04-10T22:09:21.276Z,10.20
2018-04-10T22:11:49.401Z,10.10
2018-04-10T22:14:18.441Z,10.00
2018-04-10T22:16:46.519Z,10.00
2018-04-10T22:19:14.592Z,10.00
2018-04-10T22:21:42.655Z,10.00
2018-04-10T22:24:10.762Z,10.00
2018-04-10T22:26:39.806Z,10.10
2018-04-10T22:29:08.662Z,10.10
2018-04-10T22:31:36.746Z,10.10
2018-04-10T22:34:04.775Z,10.10
2018-04-10T22:36:32.823Z,9.90
2018-04-10T22:39:01.008Z,9.90
2018-04-10T22:41:29.066Z,9.70
2018-04-10T22:43:57.140Z,9.60
2018-04-10T22:46:27.112Z,9.60
2018-04-10T22:48:55.938Z,9.90
2018-04-10T22:51:23.997Z,9.80
2018-04-10T22:53:52.060Z,9.90
2018-04-10T22:56:20.125Z,9.70
2018-04-10T22:58:48.193Z,9.60
2018-04-10T23:01:16.272Z,9.50
2018-04-10T23:03:44.406Z,9.50
2018-04-10T23:06:13.087Z,9.50
2018-04-10T23:08:41.164Z,9.50
2018-04-10T23:11:09.383Z,9.60
2018-04-10T23:13:37.635Z,9.50
2018-04-10T23:16:05.700Z,9.40
2018-04-10T23:18:33.804Z,9.30
2018-04-10T23:21:02.759Z,9.20
2018-04-10T23:23:30.830Z,9.20
2018-04-10T23:26:00.071Z,9.10
2018-04-10T23:28:28.180Z,9.00
2018-04-10T23:30:56.280Z,8.90
2018-04-10T23:33:24.461Z,8.90
2018-04-10T23:35:54.358Z,8.90
2018-04-10T23:38:22.419Z,8.80
2018-04-10T23:40:50.576Z,8.80
2018-04-10T23:43:18.662Z,8.70
2018-04-10T23:45:46.759Z,8.80
2018-04-10T23:48:14.907Z,8.70
2018-04-10T23:50:42.968Z,8.60
2018-04-10T23:53:11.086Z,8.60
2018-04-10T23:55:39.110Z,8.50
2018-04-10T23:58:07.177Z,8.50
